Time;durP1;ratioP1;P1;durP2;ratioP2;P2;SDS_P1;SDS_P2;PMS_P1;PMS_P2;Temp;Humidity;BMP_temperature;BMP_pressure;BME280_temperature;BME280_humidity;BME280_pressure;Samples;Min_cycle;Max_cycle;Signal;HPM_P1;HPM_P2
2022/07/14 00:03:51;;;;;;;3.83;1.20;;;;;;;20.78;86.41;100581.56;20667351;28;20138;-69
2022/07/14 00:13:52;;;;;;;4.72;1.35;;;;;;;20.58;90.60;100583.50;20667145;28;20054;-69
2022/07/14 00:23:54;;;;;;;4.55;1.20;;;;;;;20.31;94.77;100582.31;20666826;28;20112;-69
2022/07/14 00:33:55;;;;;;;2.88;1.30;;;;;;;20.16;94.92;100582.16;20665552;28;20141;-69
2022/07/14 00:43:56;;;;;;;3.20;1.30;;;;;;;19.89;96.79;100559.72;20664979;28;20065;-69
2022/07/14 00:53:59;;;;;;;3.03;1.25;;;;;;;19.76;98.94;100563.94;20664024;28;20648;-69
2022/07/14 01:04:00;;;;;;;3.08;1.20;;;;;;;19.76;99.71;100563.94;20663051;28;20141;-69
2022/07/14 01:14:03;;;;;;;2.15;1.13;;;;;;;19.51;98.76;100556.31;20662941;28;20050;-68
2022/07/14 01:24:05;;;;;;;3.85;1.40;;;;;;;19.40;97.79;100578.97;20661779;28;20050;-70
2022/07/14 01:34:06;;;;;;;2.88;1.40;;;;;;;19.11;100.00;100579.50;20659746;28;20051;-69
2022/07/14 01:44:10;;;;;;;3.83;1.40;;;;;;;19.06;100.00;100566.44;20659966;28;20141;-70
2022/07/14 01:54:11;;;;;;;5.50;1.75;;;;;;;19.13;100.00;100549.31;20658801;28;20058;-68
2022/07/14 02:04:13;;;;;;;3.63;1.40;;;;;;;19.10;99.95;100538.81;20658019;28;20061;-67
2022/07/14 02:14:14;;;;;;;2.72;1.60;;;;;;;18.78;100.00;100542.16;20658030;28;20451;-67
2022/07/14 02:24:16;;;;;;;3.60;1.63;;;;;;;18.56;100.00;100532.53;20656984;28;20054;-68
2022/07/14 02:34:17;;;;;;;3.90;1.52;;;;;;;18.29;100.00;100539.97;20655649;28;20066;-67
2022/07/14 02:44:19;;;;;;;4.28;1.67;;;;;;;18.29;100.00;100539.09;20655926;28;20141;-68
2022/07/14 02:54:20;;;;;;;5.75;1.90;;;;;;;18.34;100.00;100531.81;20655247;28;20051;-67
2022/07/14 03:04:21;;;;;;;9.45;2.50;;;;;;;18.22;100.00;100542.97;20654852;28;20369;-68
2022/07/14 03:14:23;;;;;;;4.65;2.10;;;;;;;18.17;100.00;100532.59;20654707;28;20054;-70
2022/07/14 03:24:25;;;;;;;4.35;2.10;;;;;;;17.83;100.00;100539.38;20670422;28;20050;-69
2022/07/14 03:34:26;;;;;;;4.07;1.80;;;;;;;17.76;100.00;100559.09;20669382;28;20491;-68
2022/07/14 03:44:27;;;;;;;4.80;2.40;;;;;;;17.82;100.00;100566.78;20669108;28;20052;-68
2022/07/14 03:54:29;;;;;;;5.97;2.08;;;;;;;17.87;100.00;100563.91;20668197;28;20058;-68
2022/07/14 04:04:31;;;;;;;6.35;2.75;;;;;;;17.89;100.00;100575.31;20667402;28;20061;-68
2022/07/14 04:14:32;;;;;;;6.90;2.58;;;;;;;17.99;100.00;100557.25;20666690;28;20050;-71
2022/07/14 04:24:34;;;;;;;5.47;2.63;;;;;;;17.98;100.00;100569.63;20657072;28;20065;-73
2022/07/14 04:34:35;;;;;;;5.28;2.28;;;;;;;18.50;100.00;100569.97;20594431;28;20061;-70
2022/07/14 04:44:36;;;;;;;8.15;3.45;;;;;;;20.50;94.80;100556.47;20582621;28;20057;-71
2022/07/14 04:54:38;;;;;;;6.00;2.70;;;;;;;20.91;90.58;100545.34;20582127;28;20046;-69
2022/07/14 05:04:39;;;;;;;4.88;2.75;;;;;;;20.86;90.60;100539.44;20582216;28;20427;-68
2022/07/14 05:14:41;;;;;;;5.63;3.70;;;;;;;20.60;92.25;100525.78;20581964;28;20069;-68
2022/07/14 05:24:42;;;;;;;5.63;3.03;;;;;;;20.57;93.19;100530.41;20580962;28;20059;-68
2022/07/14 05:34:43;;;;;;;8.98;3.40;;;;;;;20.51;94.37;100530.75;20579690;28;20076;-68
2022/07/14 05:44:45;;;;;;;10.15;3.67;;;;;;;20.76;93.06;100517.78;20578659;28;20062;-66
2022/07/14 05:54:46;;;;;;;7.38;3.85;;;;;;;20.70;100.00;100529.66;20579002;28;20047;-66
2022/07/14 06:04:48;;;;;;;11.65;3.53;;;;;;;20.95;96.33;100523.78;20577466;28;20054;-65
2022/07/14 06:14:49;;;;;;;6.85;3.55;;;;;;;21.08;96.99;100515.97;20576928;28;20055;-66
2022/07/14 06:24:51;;;;;;;9.13;4.32;;;;;;;21.30;89.83;100506.72;20578623;28;20053;-66
2022/07/14 06:34:52;;;;;;;6.40;3.38;;;;;;;21.76;82.82;100497.75;20614092;28;20050;-65
2022/07/14 06:44:53;;;;;;;7.28;2.47;;;;;;;22.37;73.40;100503.78;20614105;28;20046;-66
2022/07/14 06:54:56;;;;;;;6.55;2.20;;;;;;;23.22;70.02;100497.38;20611481;28;20051;-66
2022/07/14 07:15:18;;;;;;;9.13;2.72;;;;;;;23.41;63.17;100483.63;20600811;28;20055;-66
2022/07/14 07:25:19;;;;;;;6.47;2.47;;;;;;;24.17;61.43;100458.75;20624336;28;20047;-66
2022/07/14 07:35:20;;;;;;;5.82;2.63;;;;;;;24.76;56.41;100456.25;20620179;28;20414;-66
2022/07/14 07:45:22;;;;;;;5.97;2.85;;;;;;;25.18;57.21;100440.66;20605454;28;20073;-66
2022/07/14 07:55:23;;;;;;;4.32;2.10;;;;;;;26.02;52.29;100426.06;20604456;28;20065;-65
2022/07/14 08:05:27;;;;;;;5.03;2.40;;;;;;;26.84;49.82;100418.47;20610702;28;20497;-66
2022/07/14 08:15:46;;;;;;;6.25;2.50;;;;;;;26.68;48.65;100404.59;20628895;28;20038;-66
2022/07/14 08:25:47;;;;;;;5.25;2.33;;;;;;;26.99;47.79;100399.38;20579370;28;20059;-67
2022/07/14 08:35:49;;;;;;;4.85;2.45;;;;;;;27.49;44.21;100386.13;20578165;28;20054;-66
2022/07/14 08:45:50;;;;;;;4.88;2.28;;;;;;;27.70;40.08;100383.44;20577534;28;20416;-69
2022/07/14 08:55:52;;;;;;;7.25;2.03;;;;;;;28.22;38.36;100373.41;20576958;28;20051;-68
2022/07/14 09:05:53;;;;;;;6.28;2.00;;;;;;;28.36;37.75;100381.13;20574589;28;20053;-67
2022/07/14 09:16:00;;;;;;;5.45;2.03;;;;;;;28.58;35.89;100369.25;20627822;28;20069;-67
2022/07/14 09:26:01;;;;;;;5.85;1.80;;;;;;;28.71;35.05;100359.06;20654304;28;20050;-67
2022/07/14 09:36:03;;;;;;;4.55;1.60;;;;;;;29.02;36.74;100358.94;20653079;28;20061;-67
2022/07/14 09:46:04;;;;;;;6.85;1.70;;;;;;;29.22;34.81;100340.84;20655373;28;20072;-67
2022/07/14 09:56:06;;;;;;;6.75;2.03;;;;;;;30.04;34.21;100337.41;20652134;28;20050;-68
2022/07/14 10:06:08;;;;;;;4.60;1.80;;;;;;;30.41;34.06;100319.28;20650953;28;20104;-69
2022/07/14 10:16:29;;;;;;;5.80;1.80;;;;;;;30.21;34.44;100304.22;20593754;28;20055;-67
2022/07/14 10:26:31;;;;;;;4.88;2.00;;;;;;;31.19;33.72;100286.16;20568707;28;20043;-67
2022/07/14 10:36:32;;;;;;;6.25;2.00;;;;;;;30.65;34.61;100294.34;20783869;23;20075;-75
2022/07/14 10:46:34;;;;;;;7.93;1.88;;;;;;;30.61;34.80;100259.66;20757141;28;20060;-75
2022/07/14 10:56:38;;;;;;;5.70;1.60;;;;;;;31.01;33.45;100250.22;20730712;28;20069;-74
2022/07/14 11:06:40;;;;;;;4.55;1.63;;;;;;;31.59;31.25;100235.97;20728640;28;20046;-74
2022/07/14 11:16:42;;;;;;;;;;;;;;;31.62;32.78;100227.50;20789109;28;20053;-77
2022/07/14 11:26:50;;;;;;;9.13;1.98;;;;;;;31.70;32.42;100219.41;20810384;28;19921;-76
2022/07/14 11:36:51;;;;;;;4.55;1.60;;;;;;;31.80;32.00;100209.28;20810477;28;20045;-76
2022/07/14 11:47:12;;;;;;;5.10;1.70;;;;;;;32.51;30.50;100191.59;20826288;28;20053;-76
2022/07/14 11:57:14;;;;;;;5.63;1.55;;;;;;;32.28;29.73;100179.72;20779265;28;20478;-76
2022/07/14 12:07:15;;;;;;;3.83;1.75;;;;;;;32.26;30.25;100177.19;20799787;28;20041;-76
2022/07/14 12:17:17;;;;;;;2.93;1.57;;;;;;;32.66;29.62;100162.78;20842457;28;20516;-77
2022/07/14 12:27:18;;;;;;;5.93;1.50;;;;;;;33.51;28.31;100153.19;20876247;28;20071;-78
2022/07/14 12:37:20;;;;;;;4.67;1.50;;;;;;;33.66;27.48;100145.94;20879070;28;20534;-78
2022/07/14 12:47:21;;;;;;;6.57;1.70;;;;;;;32.68;27.04;100157.19;20878863;28;20054;-78
2022/07/14 12:57:23;;;;;;;8.15;1.58;;;;;;;32.51;28.37;100160.94;20881746;28;20056;-77
2022/07/14 13:07:25;;;;;;;5.65;1.60;;;;;;;32.26;29.33;100150.09;20888147;28;20067;-78
2022/07/14 13:17:26;;;;;;;8.33;1.57;;;;;;;32.37;29.53;100136.22;20861316;28;20049;-75
2022/07/14 13:27:27;;;;;;;9.40;1.50;;;;;;;32.45;30.32;100126.41;20800575;28;20924;-77
2022/07/14 13:37:29;;;;;;;6.47;1.60;;;;;;;33.20;28.82;100115.97;20798884;28;20492;-75
2022/07/14 13:47:30;;;;;;;6.83;1.70;;;;;;;33.14;27.63;100111.28;20816155;28;20132;-77
2022/07/14 13:57:32;;;;;;;5.80;2.00;;;;;;;32.56;31.49;100115.19;20813422;28;20407;-77
2022/07/14 14:07:33;;;;;;;8.27;2.70;;;;;;;31.08;37.19;100122.28;20811903;28;20088;-76
2022/07/14 14:17:35;;;;;;;12.63;3.08;;;;;;;31.26;38.09;100129.44;20747152;28;20507;-76
2022/07/14 14:27:36;;;;;;;9.38;3.03;;;;;;;31.26;37.94;100114.06;20730883;28;20071;-76
2022/07/14 14:37:37;;;;;;;7.38;2.63;;;;;;;31.23;37.13;100108.97;20730260;28;20439;-76
2022/07/14 14:47:39;;;;;;;9.88;3.20;;;;;;;31.34;37.15;100116.00;20730542;28;20482;-76
2022/07/14 14:57:40;;;;;;;10.55;3.17;;;;;;;30.51;39.99;100123.81;20729974;28;20081;-76
2022/07/14 15:07:42;;;;;;;8.20;3.38;;;;;;;30.26;40.84;100147.97;20728176;28;20414;-76
2022/07/14 15:17:43;;;;;;;8.55;3.22;;;;;;;29.50;42.18;100159.16;20808852;28;20050;-77
2022/07/14 15:27:44;;;;;;;8.65;3.45;;;;;;;29.46;41.25;100151.53;20825439;28;20050;-77
2022/07/14 15:37:46;;;;;;;8.65;3.10;;;;;;;29.32;42.00;100137.59;20825986;28;20049;-77
2022/07/14 15:47:47;;;;;;;6.60;3.00;;;;;;;29.86;37.62;100141.19;20825725;28;20784;-77
2022/07/14 15:57:49;;;;;;;13.35;3.20;;;;;;;28.64;37.47;100174.72;20825120;28;20096;-78
2022/07/14 16:07:50;;;;;;;9.18;3.20;;;;;;;27.94;36.44;100194.75;20823148;28;20057;-77
2022/07/14 16:17:51;;;;;;;7.85;2.35;;;;;;;27.04;37.70;100206.34;20753538;28;20064;-77
2022/07/14 16:27:53;;;;;;;10.43;3.15;;;;;;;27.01;37.31;100220.03;20752952;22;20062;-72
2022/07/14 16:37:54;;;;;;;9.85;3.15;;;;;;;26.91;37.04;100224.50;20741400;28;20054;-72
2022/07/14 16:47:55;;;;;;;9.48;3.70;;;;;;;26.82;36.84;100247.63;20739944;28;20054;-72
2022/07/14 16:57:57;;;;;;;8.43;3.72;;;;;;;27.13;36.66;100224.38;20737504;28;20064;-73
2022/07/14 17:07:58;;;;;;;15.07;6.68;;;;;;;26.97;38.26;100240.09;20736760;28;20061;-74
2022/07/14 17:18:00;;;;;;;16.63;7.93;;;;;;;26.60;39.46;100249.50;20736619;28;20145;-70
2022/07/14 17:28:01;;;;;;;17.42;7.00;;;;;;;26.56;39.31;100274.06;20734567;28;20066;-70
2022/07/14 17:38:06;;;;;;;12.88;4.00;;;;;;;26.48;39.41;100293.47;20732773;28;20045;-70
2022/07/14 17:48:07;;;;;;;7.50;2.85;;;;;;;26.54;39.45;100301.03;20734185;28;20156;-73
2022/07/14 17:58:10;;;;;;;7.18;3.20;;;;;;;26.29;38.95;100312.91;20736082;28;20065;-71
2022/07/14 18:08:20;;;;;;;8.60;2.72;;;;;;;26.00;39.02;100326.06;20734388;28;20153;-70
2022/07/14 18:18:21;;;;;;;8.10;2.63;;;;;;;26.02;38.08;100344.72;20733871;28;20053;-72
2022/07/14 18:28:23;;;;;;;7.13;2.78;;;;;;;25.84;38.01;100360.47;20731890;28;20491;-70
2022/07/14 18:38:24;;;;;;;8.05;2.35;;;;;;;25.84;38.05;100369.38;20730862;28;20042;-70
2022/07/14 18:48:26;;;;;;;7.75;2.17;;;;;;;25.73;38.12;100377.41;20728916;28;20124;-76
2022/07/14 18:58:27;;;;;;;10.18;2.25;;;;;;;25.62;38.62;100406.88;20730511;28;20409;-71
2022/07/14 19:08:30;;;;;;;7.18;2.70;;;;;;;25.36;38.00;100413.41;20729478;28;20049;-72
2022/07/14 19:18:31;;;;;;;9.07;2.63;;;;;;;24.98;38.40;100425.19;20728607;28;20060;-70
2022/07/14 19:28:33;;;;;;;5.10;2.25;;;;;;;24.69;38.52;100449.66;20728049;28;20430;-70
2022/07/14 19:38:34;;;;;;;7.75;2.50;;;;;;;24.47;39.16;100460.22;20727389;28;20054;-72
2022/07/14 19:48:35;;;;;;;8.95;3.00;;;;;;;24.11;39.36;100491.31;20726908;28;20057;-72
2022/07/14 19:58:37;;;;;;;10.40;2.72;;;;;;;23.93;39.94;100522.88;20716395;28;20061;-69
2022/07/14 20:08:38;;;;;;;7.38;2.50;;;;;;;23.67;40.32;100534.53;20727501;28;20050;-76
2022/07/14 20:18:40;;;;;;;7.35;2.92;;;;;;;23.32;41.18;100552.88;20737576;28;20050;-71
2022/07/14 20:39:21;;;;;;;6.82;2.65;;;;;;;22.84;42.99;100576.44;20738358;28;20056;-70
2022/07/14 20:49:23;;;;;;;8.55;2.70;;;;;;;22.66;42.82;100589.13;20737986;28;20060;-70
2022/07/14 20:59:29;;;;;;;8.98;2.80;;;;;;;22.45;43.00;100602.03;20736779;28;20061;-71
2022/07/14 21:09:30;;;;;;;6.75;2.70;;;;;;;22.38;43.44;100598.03;20735606;28;20140;-70
2022/07/14 21:19:32;;;;;;;5.45;2.50;;;;;;;22.00;44.09;100607.38;20679582;28;20050;-71
2022/07/14 21:29:33;;;;;;;7.13;2.50;;;;;;;21.72;45.70;100612.63;20656583;28;20164;-72
2022/07/14 21:39:34;;;;;;;6.13;2.33;;;;;;;21.53;46.46;100612.84;20652894;28;20507;-70
2022/07/14 21:49:36;;;;;;;8.02;2.78;;;;;;;21.24;47.77;100633.97;20652494;28;20104;-71
2022/07/14 21:59:37;;;;;;;7.97;2.90;;;;;;;21.06;48.46;100642.13;20653239;28;20859;-73
2022/07/14 22:09:39;;;;;;;8.75;2.95;;;;;;;20.88;49.15;100649.31;20723866;28;20078;-71
2022/07/14 22:19:40;;;;;;;9.48;3.03;;;;;;;20.85;49.34;100652.16;20739309;28;20074;-70
2022/07/14 22:29:42;;;;;;;6.43;2.63;;;;;;;20.50;50.84;100662.88;20760293;22;20125;-79
2022/07/14 22:39:43;;;;;;;8.07;2.50;;;;;;;20.22;52.53;100669.59;20823020;28;20088;-80
2022/07/14 22:49:44;;;;;;;6.72;2.53;;;;;;;20.11;52.95;100679.06;20825146;28;20501;-80
2022/07/14 22:59:46;;;;;;;7.50;2.35;;;;;;;19.99;53.73;100677.91;20830017;28;20056;-79
2022/07/14 23:09:47;;;;;;;7.97;3.20;;;;;;;19.75;54.93;100677.31;20826354;28;20052;-78
2022/07/14 23:19:49;;;;;;;6.22;2.50;;;;;;;19.63;55.80;100680.56;20763449;22;20056;-78
2022/07/14 23:29:50;;;;;;;7.22;2.85;;;;;;;19.61;55.48;100680.66;20737425;28;20053;-78
2022/07/14 23:39:52;;;;;;;6.20;2.50;;;;;;;19.40;59.35;100689.59;20753643;28;20491;-77
2022/07/14 23:49:53;;;;;;;5.70;2.45;;;;;;;19.29;60.22;100686.59;20753056;28;20054;-77
2022/07/14 23:59:54;;;;;;;6.53;2.58;;;;;;;19.05;63.03;100684.16;20753436;28;20054;-77
